sensor_id;sensor_type;location;lat;lon;timestamp;P1;durP1;ratioP1;P2;durP2;ratioP2
9288;SDS011;4683;50.864;12.086;2023-01-09T00:01:58;7.60;;;6.90;;
9288;SDS011;4683;50.864;12.086;2023-01-09T00:04:26;8.00;;;7.30;;
9288;SDS011;4683;50.864;12.086;2023-01-09T00:06:54;7.77;;;7.10;;
9288;SDS011;4683;50.864;12.086;2023-01-09T00:09:23;7.53;;;6.83;;
9288;SDS011;4683;50.864;12.086;2023-01-09T00:11:53;7.67;;;6.87;;
9288;SDS011;4683;50.864;12.086;2023-01-09T00:14:22;6.80;;;6.20;;
9288;SDS011;4683;50.864;12.086;2023-01-09T00:16:54;7.33;;;6.63;;
9288;SDS011;4683;50.864;12.086;2023-01-09T00:19:23;6.67;;;6.00;;
9288;SDS011;4683;50.864;12.086;2023-01-09T00:21:51;6.27;;;5.67;;
9288;SDS011;4683;50.864;12.086;2023-01-09T00:24:20;6.77;;;6.17;;
9288;SDS011;4683;50.864;12.086;2023-01-09T00:26:48;6.87;;;6.27;;
9288;SDS011;4683;50.864;12.086;2023-01-09T00:29:17;7.00;;;6.30;;
9288;SDS011;4683;50.864;12.086;2023-01-09T00:31:45;6.00;;;5.50;;
9288;SDS011;4683;50.864;12.086;2023-01-09T00:34:15;6.70;;;6.10;;
9288;SDS011;4683;50.864;12.086;2023-01-09T00:36:44;6.57;;;6.00;;
9288;SDS011;4683;50.864;12.086;2023-01-09T00:39:13;6.10;;;5.50;;
9288;SDS011;4683;50.864;12.086;2023-01-09T00:41:47;8.53;;;6.00;;
9288;SDS011;4683;50.864;12.086;2023-01-09T00:44:20;6.40;;;5.80;;
9288;SDS011;4683;50.864;12.086;2023-01-09T00:46:54;6.33;;;5.73;;
9288;SDS011;4683;50.864;12.086;2023-01-09T00:49:34;6.40;;;5.80;;
9288;SDS011;4683;50.864;12.086;2023-01-09T00:52:03;7.67;;;6.07;;
9288;SDS011;4683;50.864;12.086;2023-01-09T00:54:34;6.33;;;5.77;;
9288;SDS011;4683;50.864;12.086;2023-01-09T00:57:03;5.93;;;5.40;;
9288;SDS011;4683;50.864;12.086;2023-01-09T00:59:32;5.63;;;5.13;;
9288;SDS011;4683;50.864;12.086;2023-01-09T01:02:00;5.73;;;5.23;;
9288;SDS011;4683;50.864;12.086;2023-01-09T01:04:29;5.77;;;5.17;;
9288;SDS011;4683;50.864;12.086;2023-01-09T01:07:17;6.67;;;5.37;;
9288;SDS011;4683;50.864;12.086;2023-01-09T01:10:02;5.70;;;5.20;;
9288;SDS011;4683;50.864;12.086;2023-01-09T01:12:33;5.30;;;4.80;;
9288;SDS011;4683;50.864;12.086;2023-01-09T01:15:02;5.80;;;4.97;;
9288;SDS011;4683;50.864;12.086;2023-01-09T01:17:32;4.93;;;4.43;;
9288;SDS011;4683;50.864;12.086;2023-01-09T01:20:01;5.43;;;4.90;;
9288;SDS011;4683;50.864;12.086;2023-01-09T01:22:33;5.37;;;4.87;;
9288;SDS011;4683;50.864;12.086;2023-01-09T01:25:02;4.93;;;4.47;;
9288;SDS011;4683;50.864;12.086;2023-01-09T01:27:31;6.63;;;4.77;;
9288;SDS011;4683;50.864;12.086;2023-01-09T01:30:00;5.20;;;4.70;;
9288;SDS011;4683;50.864;12.086;2023-01-09T01:32:29;5.10;;;4.50;;
9288;SDS011;4683;50.864;12.086;2023-01-09T01:35:00;5.03;;;4.63;;
9288;SDS011;4683;50.864;12.086;2023-01-09T01:37:29;5.03;;;4.60;;
9288;SDS011;4683;50.864;12.086;2023-01-09T01:40:00;5.40;;;4.63;;
9288;SDS011;4683;50.864;12.086;2023-01-09T01:42:30;5.83;;;4.77;;
9288;SDS011;4683;50.864;12.086;2023-01-09T01:45:07;5.67;;;5.13;;
9288;SDS011;4683;50.864;12.086;2023-01-09T01:47:40;5.43;;;4.93;;
9288;SDS011;4683;50.864;12.086;2023-01-09T01:50:18;5.47;;;4.97;;
9288;SDS011;4683;50.864;12.086;2023-01-09T01:52:54;6.00;;;5.50;;
9288;SDS011;4683;50.864;12.086;2023-01-09T01:55:31;5.83;;;5.20;;
9288;SDS011;4683;50.864;12.086;2023-01-09T01:58:02;6.47;;;5.07;;
9288;SDS011;4683;50.864;12.086;2023-01-09T02:00:34;5.73;;;5.23;;
9288;SDS011;4683;50.864;12.086;2023-01-09T02:03:06;5.70;;;5.03;;
9288;SDS011;4683;50.864;12.086;2023-01-09T02:05:35;5.90;;;5.30;;
9288;SDS011;4683;50.864;12.086;2023-01-09T02:08:05;5.77;;;5.20;;
9288;SDS011;4683;50.864;12.086;2023-01-09T02:10:36;5.60;;;5.10;;
9288;SDS011;4683;50.864;12.086;2023-01-09T02:13:05;5.67;;;5.17;;
9288;SDS011;4683;50.864;12.086;2023-01-09T02:15:37;6.47;;;5.60;;
9288;SDS011;4683;50.864;12.086;2023-01-09T02:18:25;5.90;;;4.73;;
9288;SDS011;4683;50.864;12.086;2023-01-09T02:21:08;6.57;;;5.40;;
9288;SDS011;4683;50.864;12.086;2023-01-09T02:24:00;5.97;;;5.37;;
9288;SDS011;4683;50.864;12.086;2023-01-09T02:30:30;6.93;;;5.43;;
9288;SDS011;4683;50.864;12.086;2023-01-09T02:33:20;6.20;;;5.60;;
9288;SDS011;4683;50.864;12.086;2023-01-09T02:36:15;6.23;;;5.63;;
9288;SDS011;4683;50.864;12.086;2023-01-09T02:38:53;6.33;;;5.73;;
9288;SDS011;4683;50.864;12.086;2023-01-09T02:41:42;6.63;;;5.77;;
9288;SDS011;4683;50.864;12.086;2023-01-09T02:44:17;7.43;;;5.93;;
9288;SDS011;4683;50.864;12.086;2023-01-09T02:47:01;6.27;;;5.67;;
9288;SDS011;4683;50.864;12.086;2023-01-09T02:49:33;6.70;;;6.00;;
9288;SDS011;4683;50.864;12.086;2023-01-09T02:52:18;6.50;;;5.70;;
9288;SDS011;4683;50.864;12.086;2023-01-09T02:55:00;7.03;;;6.33;;
9288;SDS011;4683;50.864;12.086;2023-01-09T02:57:45;6.10;;;5.50;;
9288;SDS011;4683;50.864;12.086;2023-01-09T03:00:32;6.47;;;5.83;;
9288;SDS011;4683;50.864;12.086;2023-01-09T03:03:10;6.30;;;5.60;;
9288;SDS011;4683;50.864;12.086;2023-01-09T03:05:50;6.90;;;6.30;;
9288;SDS011;4683;50.864;12.086;2023-01-09T03:08:27;6.63;;;6.00;;
9288;SDS011;4683;50.864;12.086;2023-01-09T03:11:01;8.90;;;6.03;;
9288;SDS011;4683;50.864;12.086;2023-01-09T03:13:35;6.67;;;5.97;;
9288;SDS011;4683;50.864;12.086;2023-01-09T03:16:11;6.27;;;5.67;;
9288;SDS011;4683;50.864;12.086;2023-01-09T03:18:48;6.63;;;5.73;;
9288;SDS011;4683;50.864;12.086;2023-01-09T03:21:17;6.40;;;5.80;;
9288;SDS011;4683;50.864;12.086;2023-01-09T03:23:49;6.60;;;5.90;;
9288;SDS011;4683;50.864;12.086;2023-01-09T03:26:19;6.17;;;5.63;;
9288;SDS011;4683;50.864;12.086;2023-01-09T03:28:49;7.00;;;6.30;;
9288;SDS011;4683;50.864;12.086;2023-01-09T03:31:19;7.40;;;5.53;;
9288;SDS011;4683;50.864;12.086;2023-01-09T03:33:49;6.83;;;6.10;;
9288;SDS011;4683;50.864;12.086;2023-01-09T03:36:18;6.43;;;5.83;;
9288;SDS011;4683;50.864;12.086;2023-01-09T03:38:48;6.40;;;5.80;;
9288;SDS011;4683;50.864;12.086;2023-01-09T03:41:17;6.47;;;5.87;;
9288;SDS011;4683;50.864;12.086;2023-01-09T03:43:46;6.60;;;5.90;;
9288;SDS011;4683;50.864;12.086;2023-01-09T03:46:14;6.50;;;5.90;;
9288;SDS011;4683;50.864;12.086;2023-01-09T03:48:43;6.63;;;6.03;;
9288;SDS011;4683;50.864;12.086;2023-01-09T03:51:13;6.77;;;6.07;;
9288;SDS011;4683;50.864;12.086;2023-01-09T03:53:41;6.60;;;6.00;;
9288;SDS011;4683;50.864;12.086;2023-01-09T03:56:10;7.27;;;6.03;;
9288;SDS011;4683;50.864;12.086;2023-01-09T03:58:39;6.03;;;5.50;;
9288;SDS011;4683;50.864;12.086;2023-01-09T04:01:07;6.30;;;5.50;;
9288;SDS011;4683;50.864;12.086;2023-01-09T04:03:37;6.97;;;6.27;;
9288;SDS011;4683;50.864;12.086;2023-01-09T04:06:06;6.27;;;5.67;;
9288;SDS011;4683;50.864;12.086;2023-01-09T04:08:36;6.20;;;5.60;;
9288;SDS011;4683;50.864;12.086;2023-01-09T04:11:05;6.97;;;6.27;;
9288;SDS011;4683;50.864;12.086;2023-01-09T04:13:33;6.27;;;5.63;;
9288;SDS011;4683;50.864;12.086;2023-01-09T04:16:01;6.40;;;5.80;;
9288;SDS011;4683;50.864;12.086;2023-01-09T04:18:30;6.03;;;5.43;;
9288;SDS011;4683;50.864;12.086;2023-01-09T04:20:59;6.40;;;5.67;;
9288;SDS011;4683;50.864;12.086;2023-01-09T04:23:27;7.83;;;5.93;;
9288;SDS011;4683;50.864;12.086;2023-01-09T04:26:02;6.07;;;5.50;;
9288;SDS011;4683;50.864;12.086;2023-01-09T04:28:32;5.57;;;5.00;;
9288;SDS011;4683;50.864;12.086;2023-01-09T04:31:00;5.47;;;4.97;;
9288;SDS011;4683;50.864;12.086;2023-01-09T04:33:30;5.33;;;4.83;;
9288;SDS011;4683;50.864;12.086;2023-01-09T04:35:59;6.13;;;5.53;;
9288;SDS011;4683;50.864;12.086;2023-01-09T04:38:28;5.37;;;4.80;;
9288;SDS011;4683;50.864;12.086;2023-01-09T04:40:57;5.90;;;5.30;;
9288;SDS011;4683;50.864;12.086;2023-01-09T04:43:26;5.10;;;4.70;;
9288;SDS011;4683;50.864;12.086;2023-01-09T04:45:55;6.10;;;5.17;;
9288;SDS011;4683;50.864;12.086;2023-01-09T04:48:23;5.47;;;4.97;;
9288;SDS011;4683;50.864;12.086;2023-01-09T04:50:52;6.13;;;5.13;;
9288;SDS011;4683;50.864;12.086;2023-01-09T04:53:20;4.90;;;4.50;;
9288;SDS011;4683;50.864;12.086;2023-01-09T04:55:49;5.60;;;5.10;;
9288;SDS011;4683;50.864;12.086;2023-01-09T04:58:17;4.90;;;4.50;;
9288;SDS011;4683;50.864;12.086;2023-01-09T05:00:47;5.30;;;4.80;;
9288;SDS011;4683;50.864;12.086;2023-01-09T05:03:16;5.30;;;4.80;;
9288;SDS011;4683;50.864;12.086;2023-01-09T05:05:44;4.80;;;4.40;;
9288;SDS011;4683;50.864;12.086;2023-01-09T05:08:12;4.70;;;4.30;;
9288;SDS011;4683;50.864;12.086;2023-01-09T05:10:41;5.47;;;4.97;;
9288;SDS011;4683;50.864;12.086;2023-01-09T05:13:09;4.90;;;4.40;;
9288;SDS011;4683;50.864;12.086;2023-01-09T05:15:42;4.77;;;4.37;;
9288;SDS011;4683;50.864;12.086;2023-01-09T05:18:12;4.33;;;3.93;;
9288;SDS011;4683;50.864;12.086;2023-01-09T05:20:40;4.17;;;3.83;;
9288;SDS011;4683;50.864;12.086;2023-01-09T05:23:11;3.77;;;3.40;;
9288;SDS011;4683;50.864;12.086;2023-01-09T05:25:39;3.90;;;3.50;;
9288;SDS011;4683;50.864;12.086;2023-01-09T05:28:08;3.70;;;3.40;;
9288;SDS011;4683;50.864;12.086;2023-01-09T05:30:37;3.40;;;3.10;;
9288;SDS011;4683;50.864;12.086;2023-01-09T05:33:05;3.77;;;3.23;;
9288;SDS011;4683;50.864;12.086;2023-01-09T05:35:35;2.83;;;2.63;;
9288;SDS011;4683;50.864;12.086;2023-01-09T05:38:04;3.50;;;3.20;;
9288;SDS011;4683;50.864;12.086;2023-01-09T05:40:32;3.50;;;2.73;;
9288;SDS011;4683;50.864;12.086;2023-01-09T05:43:01;2.93;;;2.67;;
9288;SDS011;4683;50.864;12.086;2023-01-09T05:45:29;4.00;;;2.97;;
9288;SDS011;4683;50.864;12.086;2023-01-09T05:47:58;3.10;;;2.83;;
9288;SDS011;4683;50.864;12.086;2023-01-09T05:50:26;3.40;;;3.10;;
9288;SDS011;4683;50.864;12.086;2023-01-09T05:52:56;3.13;;;2.83;;
9288;SDS011;4683;50.864;12.086;2023-01-09T05:55:27;3.00;;;2.70;;
9288;SDS011;4683;50.864;12.086;2023-01-09T05:57:55;2.90;;;2.70;;
9288;SDS011;4683;50.864;12.086;2023-01-09T06:00:24;3.17;;;2.87;;
9288;SDS011;4683;50.864;12.086;2023-01-09T06:02:53;4.00;;;3.50;;
9288;SDS011;4683;50.864;12.086;2023-01-09T06:05:21;3.13;;;2.87;;
9288;SDS011;4683;50.864;12.086;2023-01-09T06:07:50;3.50;;;3.20;;
9288;SDS011;4683;50.864;12.086;2023-01-09T06:10:19;3.77;;;3.40;;
9288;SDS011;4683;50.864;12.086;2023-01-09T06:12:48;3.30;;;3.00;;
9288;SDS011;4683;50.864;12.086;2023-01-09T06:15:18;3.60;;;3.30;;
9288;SDS011;4683;50.864;12.086;2023-01-09T06:17:47;3.30;;;3.00;;
9288;SDS011;4683;50.864;12.086;2023-01-09T06:20:16;3.73;;;3.33;;
9288;SDS011;4683;50.864;12.086;2023-01-09T06:22:46;3.43;;;3.13;;
9288;SDS011;4683;50.864;12.086;2023-01-09T06:25:16;3.30;;;3.00;;
9288;SDS011;4683;50.864;12.086;2023-01-09T06:27:48;3.60;;;3.30;;
9288;SDS011;4683;50.864;12.086;2023-01-09T06:30:17;4.43;;;4.03;;
9288;SDS011;4683;50.864;12.086;2023-01-09T06:32:47;3.87;;;3.53;;
9288;SDS011;4683;50.864;12.086;2023-01-09T06:35:16;3.60;;;3.30;;
9288;SDS011;4683;50.864;12.086;2023-01-09T06:37:45;3.80;;;3.43;;
9288;SDS011;4683;50.864;12.086;2023-01-09T06:40:15;3.33;;;3.07;;
9288;SDS011;4683;50.864;12.086;2023-01-09T06:42:48;3.83;;;3.30;;
9288;SDS011;4683;50.864;12.086;2023-01-09T06:45:16;3.80;;;3.50;;
9288;SDS011;4683;50.864;12.086;2023-01-09T06:47:45;3.13;;;2.83;;
9288;SDS011;4683;50.864;12.086;2023-01-09T06:50:15;3.43;;;3.13;;
9288;SDS011;4683;50.864;12.086;2023-01-09T06:52:43;4.07;;;3.60;;
9288;SDS011;4683;50.864;12.086;2023-01-09T06:55:12;3.53;;;3.23;;
9288;SDS011;4683;50.864;12.086;2023-01-09T06:57:41;3.63;;;3.33;;
9288;SDS011;4683;50.864;12.086;2023-01-09T07:00:12;3.17;;;2.97;;
9288;SDS011;4683;50.864;12.086;2023-01-09T07:02:42;3.57;;;3.27;;
9288;SDS011;4683;50.864;12.086;2023-01-09T07:05:10;3.60;;;3.30;;
9288;SDS011;4683;50.864;12.086;2023-01-09T07:07:39;3.47;;;3.17;;
9288;SDS011;4683;50.864;12.086;2023-01-09T07:10:11;3.17;;;2.90;;
9288;SDS011;4683;50.864;12.086;2023-01-09T07:12:40;3.40;;;3.00;;
9288;SDS011;4683;50.864;12.086;2023-01-09T07:15:09;2.60;;;2.40;;
9288;SDS011;4683;50.864;12.086;2023-01-09T07:17:44;3.00;;;2.80;;
9288;SDS011;4683;50.864;12.086;2023-01-09T07:20:13;3.50;;;3.20;;
9288;SDS011;4683;50.864;12.086;2023-01-09T07:22:43;4.27;;;3.10;;
9288;SDS011;4683;50.864;12.086;2023-01-09T07:25:11;3.07;;;2.87;;
9288;SDS011;4683;50.864;12.086;2023-01-09T07:27:40;3.77;;;3.40;;
9288;SDS011;4683;50.864;12.086;2023-01-09T07:30:09;2.70;;;2.50;;
9288;SDS011;4683;50.864;12.086;2023-01-09T07:32:40;2.83;;;2.63;;
9288;SDS011;4683;50.864;12.086;2023-01-09T07:35:09;2.87;;;2.67;;
9288;SDS011;4683;50.864;12.086;2023-01-09T07:37:44;3.27;;;2.97;;
9288;SDS011;4683;50.864;12.086;2023-01-09T07:40:13;2.60;;;2.40;;
9288;SDS011;4683;50.864;12.086;2023-01-09T07:42:42;2.73;;;2.53;;
9288;SDS011;4683;50.864;12.086;2023-01-09T07:45:13;2.80;;;2.60;;
9288;SDS011;4683;50.864;12.086;2023-01-09T07:47:42;2.63;;;2.43;;
9288;SDS011;4683;50.864;12.086;2023-01-09T07:50:10;2.73;;;2.53;;
9288;SDS011;4683;50.864;12.086;2023-01-09T07:52:39;3.30;;;3.00;;
9288;SDS011;4683;50.864;12.086;2023-01-09T07:55:11;2.73;;;2.43;;
9288;SDS011;4683;50.864;12.086;2023-01-09T07:57:40;2.57;;;2.37;;
9288;SDS011;4683;50.864;12.086;2023-01-09T08:00:09;2.27;;;1.97;;
9288;SDS011;4683;50.864;12.086;2023-01-09T08:02:40;2.50;;;2.30;;
9288;SDS011;4683;50.864;12.086;2023-01-09T08:05:09;2.43;;;2.23;;
9288;SDS011;4683;50.864;12.086;2023-01-09T08:07:40;2.30;;;2.10;;
9288;SDS011;4683;50.864;12.086;2023-01-09T08:10:10;2.43;;;2.23;;
9288;SDS011;4683;50.864;12.086;2023-01-09T08:12:41;2.10;;;1.90;;
9288;SDS011;4683;50.864;12.086;2023-01-09T08:15:10;2.47;;;2.27;;
9288;SDS011;4683;50.864;12.086;2023-01-09T08:17:41;2.40;;;2.20;;
9288;SDS011;4683;50.864;12.086;2023-01-09T08:20:11;2.70;;;2.37;;
9288;SDS011;4683;50.864;12.086;2023-01-09T08:22:41;3.37;;;3.07;;
9288;SDS011;4683;50.864;12.086;2023-01-09T08:25:19;2.20;;;2.03;;
9288;SDS011;4683;50.864;12.086;2023-01-09T08:27:47;2.37;;;2.17;;
9288;SDS011;4683;50.864;12.086;2023-01-09T08:30:16;2.80;;;2.10;;
9288;SDS011;4683;50.864;12.086;2023-01-09T08:32:50;2.57;;;2.37;;
9288;SDS011;4683;50.864;12.086;2023-01-09T08:35:20;3.67;;;2.97;;
9288;SDS011;4683;50.864;12.086;2023-01-09T08:37:49;2.73;;;1.00;;
9288;SDS011;4683;50.864;12.086;2023-01-09T08:40:19;0.70;;;0.70;;
9288;SDS011;4683;50.864;12.086;2023-01-09T08:42:47;1.00;;;1.00;;
9288;SDS011;4683;50.864;12.086;2023-01-09T08:45:37;0.87;;;0.87;;
9288;SDS011;4683;50.864;12.086;2023-01-09T08:48:24;0.80;;;0.80;;
9288;SDS011;4683;50.864;12.086;2023-01-09T08:50:53;1.07;;;0.97;;
9288;SDS011;4683;50.864;12.086;2023-01-09T08:53:22;1.10;;;0.60;;
9288;SDS011;4683;50.864;12.086;2023-01-09T08:55:51;1.27;;;1.10;;
9288;SDS011;4683;50.864;12.086;2023-01-09T08:58:19;0.50;;;0.50;;
9288;SDS011;4683;50.864;12.086;2023-01-09T09:00:48;0.57;;;0.57;;
9288;SDS011;4683;50.864;12.086;2023-01-09T09:03:17;0.20;;;0.20;;
9288;SDS011;4683;50.864;12.086;2023-01-09T09:05:48;0.50;;;0.50;;
9288;SDS011;4683;50.864;12.086;2023-01-09T09:08:18;0.63;;;0.30;;
9288;SDS011;4683;50.864;12.086;2023-01-09T09:10:46;0.60;;;0.50;;
9288;SDS011;4683;50.864;12.086;2023-01-09T09:13:15;0.63;;;0.43;;
9288;SDS011;4683;50.864;12.086;2023-01-09T09:15:43;0.23;;;0.23;;
9288;SDS011;4683;50.864;12.086;2023-01-09T09:18:12;1.30;;;0.30;;
9288;SDS011;4683;50.864;12.086;2023-01-09T09:20:40;0.40;;;0.30;;
9288;SDS011;4683;50.864;12.086;2023-01-09T09:23:10;0.87;;;0.50;;
9288;SDS011;4683;50.864;12.086;2023-01-09T09:25:40;1.03;;;0.50;;
9288;SDS011;4683;50.864;12.086;2023-01-09T09:28:09;1.00;;;0.70;;
9288;SDS011;4683;50.864;12.086;2023-01-09T09:30:39;0.70;;;0.70;;
9288;SDS011;4683;50.864;12.086;2023-01-09T09:33:07;0.40;;;0.40;;
9288;SDS011;4683;50.864;12.086;2023-01-09T09:35:36;0.70;;;0.63;;
9288;SDS011;4683;50.864;12.086;2023-01-09T09:38:06;4.57;;;2.43;;
9288;SDS011;4683;50.864;12.086;2023-01-09T09:40:41;1.90;;;1.10;;
9288;SDS011;4683;50.864;12.086;2023-01-09T09:44:03;1.47;;;0.70;;
9288;SDS011;4683;50.864;12.086;2023-01-09T09:47:10;1.20;;;0.77;;
9288;SDS011;4683;50.864;12.086;2023-01-09T09:50:09;1.70;;;0.70;;
9288;SDS011;4683;50.864;12.086;2023-01-09T09:52:55;0.97;;;0.50;;
9288;SDS011;4683;50.864;12.086;2023-01-09T09:55:31;0.70;;;0.40;;
9288;SDS011;4683;50.864;12.086;2023-01-09T09:58:03;0.27;;;0.27;;
9288;SDS011;4683;50.864;12.086;2023-01-09T10:00:38;1.27;;;0.37;;
9288;SDS011;4683;50.864;12.086;2023-01-09T10:03:09;0.67;;;0.40;;
9288;SDS011;4683;50.864;12.086;2023-01-09T10:05:45;0.30;;;0.30;;
9288;SDS011;4683;50.864;12.086;2023-01-09T10:08:18;0.20;;;0.20;;
9288;SDS011;4683;50.864;12.086;2023-01-09T10:11:00;0.67;;;0.27;;
9288;SDS011;4683;50.864;12.086;2023-01-09T10:13:30;0.93;;;0.60;;
9288;SDS011;4683;50.864;12.086;2023-01-09T10:16:20;0.13;;;0.13;;
9288;SDS011;4683;50.864;12.086;2023-01-09T10:19:05;0.50;;;0.37;;
9288;SDS011;4683;50.864;12.086;2023-01-09T10:21:55;1.40;;;0.37;;
9288;SDS011;4683;50.864;12.086;2023-01-09T10:24:39;0.90;;;0.30;;
9288;SDS011;4683;50.864;12.086;2023-01-09T10:27:28;0.93;;;0.53;;
9288;SDS011;4683;50.864;12.086;2023-01-09T10:30:20;1.63;;;0.30;;
9288;SDS011;4683;50.864;12.086;2023-01-09T10:33:01;1.87;;;0.70;;
9288;SDS011;4683;50.864;12.086;2023-01-09T10:35:49;0.50;;;0.50;;
9288;SDS011;4683;50.864;12.086;2023-01-09T10:38:56;0.20;;;0.20;;
9288;SDS011;4683;50.864;12.086;2023-01-09T10:41:30;2.03;;;0.37;;
9288;SDS011;4683;50.864;12.086;2023-01-09T10:44:05;0.57;;;0.57;;
9288;SDS011;4683;50.864;12.086;2023-01-09T10:46:44;0.57;;;0.43;;
9288;SDS011;4683;50.864;12.086;2023-01-09T10:49:21;0.67;;;0.67;;
9288;SDS011;4683;50.864;12.086;2023-01-09T10:51:51;1.00;;;0.80;;
9288;SDS011;4683;50.864;12.086;2023-01-09T10:54:32;0.53;;;0.53;;
9288;SDS011;4683;50.864;12.086;2023-01-09T10:57:03;0.57;;;0.30;;
9288;SDS011;4683;50.864;12.086;2023-01-09T10:59:39;0.20;;;0.20;;
9288;SDS011;4683;50.864;12.086;2023-01-09T11:02:11;0.77;;;0.57;;
9288;SDS011;4683;50.864;12.086;2023-01-09T11:04:53;0.83;;;0.30;;
9288;SDS011;4683;50.864;12.086;2023-01-09T11:07:23;1.10;;;0.53;;
9288;SDS011;4683;50.864;12.086;2023-01-09T11:09:56;1.63;;;0.60;;
9288;SDS011;4683;50.864;12.086;2023-01-09T11:12:27;0.70;;;0.70;;
9288;SDS011;4683;50.864;12.086;2023-01-09T11:14:59;1.50;;;0.67;;
9288;SDS011;4683;50.864;12.086;2023-01-09T11:18:16;2.37;;;0.60;;
9288;SDS011;4683;50.864;12.086;2023-01-09T11:20:49;0.80;;;0.57;;
9288;SDS011;4683;50.864;12.086;2023-01-09T11:23:25;0.60;;;0.60;;
9288;SDS011;4683;50.864;12.086;2023-01-09T11:26:00;0.70;;;0.33;;
9288;SDS011;4683;50.864;12.086;2023-01-09T11:28:30;0.83;;;0.47;;
9288;SDS011;4683;50.864;12.086;2023-01-09T11:31:00;0.60;;;0.40;;
9288;SDS011;4683;50.864;12.086;2023-01-09T11:33:33;1.23;;;0.50;;
9288;SDS011;4683;50.864;12.086;2023-01-09T11:36:09;1.33;;;0.73;;
9288;SDS011;4683;50.864;12.086;2023-01-09T11:38:46;0.33;;;0.30;;
9288;SDS011;4683;50.864;12.086;2023-01-09T11:41:18;0.70;;;0.47;;
9288;SDS011;4683;50.864;12.086;2023-01-09T11:43:51;1.20;;;0.60;;
9288;SDS011;4683;50.864;12.086;2023-01-09T11:46:32;0.93;;;0.77;;
9288;SDS011;4683;50.864;12.086;2023-01-09T11:49:18;1.20;;;0.80;;
9288;SDS011;4683;50.864;12.086;2023-01-09T11:52:03;0.80;;;0.70;;
9288;SDS011;4683;50.864;12.086;2023-01-09T11:54:44;0.90;;;0.40;;
9288;SDS011;4683;50.864;12.086;2023-01-09T11:57:19;1.90;;;1.00;;
9288;SDS011;4683;50.864;12.086;2023-01-09T11:59:49;0.63;;;0.63;;
9288;SDS011;4683;50.864;12.086;2023-01-09T12:05:27;0.63;;;0.40;;
9288;SDS011;4683;50.864;12.086;2023-01-09T12:08:09;4.67;;;2.07;;
9288;SDS011;4683;50.864;12.086;2023-01-09T12:10:59;1.40;;;0.90;;
9288;SDS011;4683;50.864;12.086;2023-01-09T12:13:48;7.23;;;3.00;;
9288;SDS011;4683;50.864;12.086;2023-01-09T12:17:12;2.83;;;1.07;;
9288;SDS011;4683;50.864;12.086;2023-01-09T12:20:17;1.93;;;1.27;;
9288;SDS011;4683;50.864;12.086;2023-01-09T12:22:59;3.77;;;1.03;;
9288;SDS011;4683;50.864;12.086;2023-01-09T12:25:47;1.47;;;0.60;;
9288;SDS011;4683;50.864;12.086;2023-01-09T12:31:53;2.07;;;0.80;;
9288;SDS011;4683;50.864;12.086;2023-01-09T12:34:46;0.80;;;0.70;;
9288;SDS011;4683;50.864;12.086;2023-01-09T12:37:35;0.67;;;0.30;;
9288;SDS011;4683;50.864;12.086;2023-01-09T12:40:29;0.40;;;0.30;;
9288;SDS011;4683;50.864;12.086;2023-01-09T12:43:15;1.03;;;0.80;;
9288;SDS011;4683;50.864;12.086;2023-01-09T12:45:58;1.27;;;0.83;;
9288;SDS011;4683;50.864;12.086;2023-01-09T12:48:44;1.10;;;0.30;;
9288;SDS011;4683;50.864;12.086;2023-01-09T12:51:36;1.93;;;0.53;;
9288;SDS011;4683;50.864;12.086;2023-01-09T12:54:11;1.20;;;0.43;;
9288;SDS011;4683;50.864;12.086;2023-01-09T12:56:49;0.97;;;0.60;;
9288;SDS011;4683;50.864;12.086;2023-01-09T12:59:25;0.50;;;0.50;;
9288;SDS011;4683;50.864;12.086;2023-01-09T13:02:01;0.30;;;0.30;;
9288;SDS011;4683;50.864;12.086;2023-01-09T13:04:42;0.70;;;0.40;;
9288;SDS011;4683;50.864;12.086;2023-01-09T13:07:19;0.30;;;0.30;;
9288;SDS011;4683;50.864;12.086;2023-01-09T13:09:55;0.30;;;0.30;;
9288;SDS011;4683;50.864;12.086;2023-01-09T13:12:31;0.53;;;0.53;;
9288;SDS011;4683;50.864;12.086;2023-01-09T13:15:13;0.80;;;0.50;;
9288;SDS011;4683;50.864;12.086;2023-01-09T13:17:55;0.50;;;0.43;;
9288;SDS011;4683;50.864;12.086;2023-01-09T13:20:31;0.47;;;0.47;;
9288;SDS011;4683;50.864;12.086;2023-01-09T13:23:08;0.93;;;0.33;;
9288;SDS011;4683;50.864;12.086;2023-01-09T13:25:45;0.33;;;0.33;;
9288;SDS011;4683;50.864;12.086;2023-01-09T13:28:16;0.87;;;0.50;;
9288;SDS011;4683;50.864;12.086;2023-01-09T13:34:15;0.97;;;0.70;;
9288;SDS011;4683;50.864;12.086;2023-01-09T13:36:48;1.43;;;1.13;;
9288;SDS011;4683;50.864;12.086;2023-01-09T13:39:19;1.07;;;0.70;;
9288;SDS011;4683;50.864;12.086;2023-01-09T13:41:53;2.03;;;0.83;;
9288;SDS011;4683;50.864;12.086;2023-01-09T13:44:49;1.03;;;0.53;;
9288;SDS011;4683;50.864;12.086;2023-01-09T13:47:22;1.03;;;0.90;;
9288;SDS011;4683;50.864;12.086;2023-01-09T13:49:57;1.00;;;0.80;;
9288;SDS011;4683;50.864;12.086;2023-01-09T13:52:50;0.80;;;0.80;;
9288;SDS011;4683;50.864;12.086;2023-01-09T13:55:28;0.70;;;0.70;;
9288;SDS011;4683;50.864;12.086;2023-01-09T14:00:58;1.13;;;0.90;;
9288;SDS011;4683;50.864;12.086;2023-01-09T14:03:29;0.77;;;0.63;;
9288;SDS011;4683;50.864;12.086;2023-01-09T14:09:11;0.90;;;0.90;;
9288;SDS011;4683;50.864;12.086;2023-01-09T14:11:47;2.70;;;1.93;;
9288;SDS011;4683;50.864;12.086;2023-01-09T14:14:30;2.50;;;1.30;;
9288;SDS011;4683;50.864;12.086;2023-01-09T14:17:00;2.50;;;1.00;;
9288;SDS011;4683;50.864;12.086;2023-01-09T14:19:31;2.20;;;1.47;;
9288;SDS011;4683;50.864;12.086;2023-01-09T14:22:03;1.53;;;0.70;;
9288;SDS011;4683;50.864;12.086;2023-01-09T14:24:38;1.87;;;1.40;;
9288;SDS011;4683;50.864;12.086;2023-01-09T14:30:35;1.90;;;1.60;;
9288;SDS011;4683;50.864;12.086;2023-01-09T14:33:27;0.90;;;0.90;;
9288;SDS011;4683;50.864;12.086;2023-01-09T14:36:01;1.20;;;1.10;;
9288;SDS011;4683;50.864;12.086;2023-01-09T14:38:46;1.93;;;1.73;;
9288;SDS011;4683;50.864;12.086;2023-01-09T14:41:20;2.10;;;1.23;;
9288;SDS011;4683;50.864;12.086;2023-01-09T14:44:18;1.33;;;1.10;;
9288;SDS011;4683;50.864;12.086;2023-01-09T14:46:57;1.20;;;1.10;;
9288;SDS011;4683;50.864;12.086;2023-01-09T14:49:39;1.70;;;1.20;;
9288;SDS011;4683;50.864;12.086;2023-01-09T14:52:19;1.37;;;0.80;;
9288;SDS011;4683;50.864;12.086;2023-01-09T14:54:52;1.60;;;0.87;;
9288;SDS011;4683;50.864;12.086;2023-01-09T14:57:28;1.40;;;0.80;;
9288;SDS011;4683;50.864;12.086;2023-01-09T15:00:05;2.30;;;1.00;;
9288;SDS011;4683;50.864;12.086;2023-01-09T15:02:45;0.87;;;0.87;;
9288;SDS011;4683;50.864;12.086;2023-01-09T15:05:15;0.87;;;0.77;;
9288;SDS011;4683;50.864;12.086;2023-01-09T15:07:48;1.47;;;1.17;;
9288;SDS011;4683;50.864;12.086;2023-01-09T15:10:20;2.57;;;2.20;;
9288;SDS011;4683;50.864;12.086;2023-01-09T15:12:52;3.40;;;3.07;;
9288;SDS011;4683;50.864;12.086;2023-01-09T15:15:23;3.47;;;2.50;;
9288;SDS011;4683;50.864;12.086;2023-01-09T15:17:55;2.93;;;2.67;;
9288;SDS011;4683;50.864;12.086;2023-01-09T15:20:27;2.00;;;1.80;;
9288;SDS011;4683;50.864;12.086;2023-01-09T15:22:59;1.27;;;1.10;;
9288;SDS011;4683;50.864;12.086;2023-01-09T15:25:34;2.70;;;1.20;;
9288;SDS011;4683;50.864;12.086;2023-01-09T15:28:19;1.63;;;1.20;;
9288;SDS011;4683;50.864;12.086;2023-01-09T15:30:53;1.40;;;1.30;;
9288;SDS011;4683;50.864;12.086;2023-01-09T15:33:29;1.10;;;1.00;;
9288;SDS011;4683;50.864;12.086;2023-01-09T15:35:59;1.63;;;1.30;;
9288;SDS011;4683;50.864;12.086;2023-01-09T15:38:34;2.17;;;1.73;;
9288;SDS011;4683;50.864;12.086;2023-01-09T15:41:05;1.30;;;1.20;;
9288;SDS011;4683;50.864;12.086;2023-01-09T15:43:38;1.30;;;1.20;;
9288;SDS011;4683;50.864;12.086;2023-01-09T15:46:08;2.53;;;0.97;;
9288;SDS011;4683;50.864;12.086;2023-01-09T15:48:39;2.73;;;1.77;;
9288;SDS011;4683;50.864;12.086;2023-01-09T15:51:09;2.20;;;2.00;;
9288;SDS011;4683;50.864;12.086;2023-01-09T15:53:41;1.63;;;1.50;;
9288;SDS011;4683;50.864;12.086;2023-01-09T15:56:14;1.87;;;1.77;;
9288;SDS011;4683;50.864;12.086;2023-01-09T15:58:46;4.50;;;1.90;;
9288;SDS011;4683;50.864;12.086;2023-01-09T16:01:26;1.50;;;1.40;;
9288;SDS011;4683;50.864;12.086;2023-01-09T16:04:03;2.37;;;1.77;;
9288;SDS011;4683;50.864;12.086;2023-01-09T16:06:36;2.43;;;2.07;;